Jordan, MT

4:57 PM MDT on June 23, 2017 (GMT -0600)
Wokal-Glasgow International | | Change Station
Active Advisory: Lake Wind Advisory

Elev 2293 ft 48.21 °N, 106.61 °W | Updated 4 minutes ago

Clear
Clear
68 °F
Feels Like 68 °F
N
21
Wind Variable Wind from NW
Gusts 29 mph

Today
High -- | Low -- °F
--% Chance of Precip.
Yesterday
High -- | Low -- °F
Precip. -- in
Pressure 30.19 in
Visibility 10.0 miles
Clouds Mostly Cloudy 8500 ft
Dew Point 29 °F
Humidity 23%
Rainfall 0.00 in
Snow Depth Not available.
5:11 AM 9:08 PM
Waning Crescent, 0% visible
METAR KGGW 232253Z AUTO 31018G25KT 10SM BKN085 20/M02 A3016 RMK AO2 PK WND 30028/2222 SLP221 T02001017
Pressure 30.19 in
Visibility 10.0 miles
Clouds Mostly Cloudy 8500 ft
Dew Point 29 °F
Humidity 23%
Rainfall 0.00 in
Snow Depth Not available.
5:11 AM 9:08 PM
Waning Crescent, 0% visible
METAR KGGW 232253Z AUTO 31018G25KT 10SM BKN085 20/M02 A3016 RMK AO2 PK WND 30028/2222 SLP221 T02001017

Get Your Daily Forecast Email!

Thanks for signing up!

Be on the lookout for a verification email in your inbox.

You'll start receiving severe weather alerts in your inbox..

×

10-Day Weather Forecast

Almanac

Astronomy

Jun. 23, 2017 Rise Set
Actual Time
Civil Twilight
Nautical Twilight
Astronomical Twilight
Moon
Length of Visible Light
Length of Day
Tomorrow will be .
, % of the Moon is Illuminated

Today's Extremes

State Highs State Lows

Community

WunderPhotos

Category 6

Welcome to Category 6. This is the collective home for Weather Underground's featured writeups by Dr. Jeff Masters (right), Bob Henson (left), Chris Burt, and other regular contributors.

Nearby

Air Quality

  Air Quality AQ Index Pollutant
Not available.

Snow Depth

Station Depth Elevation

Earthquake Activity

City Distance Mag. Time & Date
Minimum magnitude displayed is 2.5.

Coastal Water Temperatures

Place Temperature

Stations

Nearby Weather Stations

Station Location Temp. Windchill Dew Point Humidity Wind Precip. Elev Updated Type
                   

Watches & Warnings

Lake Wind Advisory
Issued: 3:02 PM MDT Jun. 23, 2017 – National Weather Service

... Lake Wind Advisory now in effect until 9 PM MDT this evening
for Fort Peck Lake...

* winds... northwest 15 to 20 mph with gusts around 30 mph.

* Timing... .through this evening.

* Impacts..these winds will make open waters of the lake rough
and hazardous, and may result in high waves which may tip or
swamp smaller craft.

Precautionary/preparedness actions...

Boaters should use extreme caution if venturing onto Fort Peck
Lake. For your personal safety, avoid the open waters. Stay close
to shore or around protected areas.